Time;durP1;ratioP1;P1;durP2;ratioP2;P2;SDS_P1;SDS_P2;PMS_P1;PMS_P2;Temp;Humidity;BMP_temperature;BMP_pressure;BME280_temperature;BME280_humidity;BME280_pressure;Samples;Min_cycle;Max_cycle;Signal;HPM_P1;HPM_P2
2023/05/23 00:00:21;;;;;;;1999.90;999.90;;;16.70;99.90;;;;;;6377842;22;20042;-76
2023/05/23 00:02:47;;;;;;;1999.90;999.90;;;16.70;99.90;;;;;;6377881;22;20018;-75
2023/05/23 00:05:14;;;;;;;1999.90;999.90;;;16.70;99.90;;;;;;6378039;22;20363;-77
2023/05/23 00:07:40;;;;;;;1999.90;999.90;;;16.70;99.90;;;;;;6377975;22;20006;-76
2023/05/23 00:10:05;;;;;;;1999.90;999.90;;;16.80;99.90;;;;;;6349735;22;20018;-76
2023/05/23 00:12:32;;;;;;;1999.90;999.90;;;16.70;99.90;;;;;;6349582;22;20011;-76
2023/05/23 00:14:58;;;;;;;1999.90;999.90;;;16.60;99.90;;;;;;6376059;22;20010;-76
2023/05/23 00:17:24;;;;;;;1999.90;999.90;;;16.60;99.90;;;;;;6349682;22;20011;-76
2023/05/23 00:19:50;;;;;;;1999.90;999.90;;;16.60;99.90;;;;;;6349499;22;20030;-76
2023/05/23 00:22:16;;;;;;;1999.90;999.90;;;16.50;99.90;;;;;;6377235;22;20058;-79
2023/05/23 00:24:42;;;;;;;1999.90;999.90;;;16.50;99.90;;;;;;6377195;22;20071;-78
2023/05/23 00:27:08;;;;;;;1999.90;999.90;;;16.50;99.90;;;;;;6377532;22;20003;-76
2023/05/23 00:29:33;;;;;;;1999.90;999.90;;;16.50;99.90;;;;;;6349438;22;20007;-76
2023/05/23 00:31:59;;;;;;;1999.90;999.90;;;16.40;99.90;;;;;;6348922;22;20082;-75
2023/05/23 00:34:24;;;;;;;1999.90;999.90;;;16.40;99.90;;;;;;6377161;22;20368;-76
2023/05/23 00:36:50;;;;;;;1999.90;999.90;;;16.40;99.90;;;;;;6349404;22;20018;-80
2023/05/23 00:39:18;;;;;;;1999.90;999.90;;;16.40;99.90;;;;;;6377334;22;20003;-76
2023/05/23 00:41:48;;;;;;;1999.90;999.90;;;16.30;99.90;;;;;;6377337;22;20015;-75
2023/05/23 00:44:14;;;;;;;1999.90;999.90;;;16.20;99.90;;;;;;6349174;22;20013;-76
2023/05/23 00:46:42;;;;;;;1999.90;999.90;;;16.20;99.90;;;;;;6377436;22;20007;-76
2023/05/23 00:49:08;;;;;;;1999.90;999.90;;;16.10;99.90;;;;;;6377594;22;20057;-76
2023/05/23 00:51:35;;;;;;;1999.90;999.90;;;16.10;99.90;;;;;;6377522;22;20398;-76
2023/05/23 00:54:01;;;;;;;1999.90;999.90;;;16.10;99.90;;;;;;6375575;22;20007;-76
2023/05/23 00:56:28;;;;;;;1999.90;999.90;;;16.10;99.90;;;;;;6349230;22;20011;-76
2023/05/23 00:58:54;;;;;;;1999.90;999.90;;;16.20;99.90;;;;;;6377560;22;20075;-76
2023/05/23 01:01:20;;;;;;;1999.90;999.90;;;16.20;99.90;;;;;;6348784;22;20084;-76
2023/05/23 01:03:47;;;;;;;1999.90;999.90;;;16.10;99.90;;;;;;6349342;22;20010;-76
2023/05/23 01:06:13;;;;;;;1999.90;999.90;;;16.10;99.90;;;;;;6375548;22;20007;-78
2023/05/23 01:08:41;;;;;;;1999.90;999.90;;;16.10;99.90;;;;;;6377243;22;20010;-78
2023/05/23 01:11:18;;;;;;;1999.90;999.90;;;16.10;99.90;;;;;;6377288;22;20498;-76
2023/05/23 01:13:57;;;;;;;1999.90;999.90;;;16.10;99.90;;;;;;6349144;22;20052;-76
2023/05/23 01:16:41;;;;;;;1999.90;999.90;;;16.00;99.90;;;;;;6349219;22;20075;-79
2023/05/23 01:19:37;;;;;;;1999.90;999.90;;;16.00;99.90;;;;;;6348927;22;20014;-76
2023/05/23 01:22:10;;;;;;;1999.90;999.90;;;15.90;99.90;;;;;;6348762;22;20402;-76
2023/05/23 01:24:56;;;;;;;1999.90;999.90;;;15.90;99.90;;;;;;6376683;22;20025;-76
2023/05/23 01:27:49;;;;;;;1999.90;999.90;;;15.90;99.90;;;;;;6377044;22;20007;-80
2023/05/23 01:30:19;;;;;;;1999.90;999.90;;;15.90;99.90;;;;;;6377004;22;20086;-76
2023/05/23 01:32:46;;;;;;;1999.90;999.90;;;15.90;99.90;;;;;;6376827;22;20050;-76
2023/05/23 01:35:18;;;;;;;1999.90;999.90;;;15.80;99.90;;;;;;6376101;22;19999;-80
2023/05/23 01:37:44;;;;;;;1999.90;999.90;;;15.80;99.90;;;;;;6377098;22;20007;-76
2023/05/23 01:40:10;;;;;;;1999.90;999.90;;;15.80;99.90;;;;;;6376567;22;20018;-76
2023/05/23 01:42:35;;;;;;;1999.90;999.90;;;15.80;99.90;;;;;;6347821;22;20057;-77
2023/05/23 01:45:01;;;;;;;1999.90;999.90;;;15.80;99.90;;;;;;6377795;22;20010;-77
2023/05/23 01:47:27;;;;;;;1999.90;999.90;;;15.90;99.90;;;;;;6378242;22;20346;-76
2023/05/23 01:49:54;;;;;;;1999.90;999.90;;;15.90;99.90;;;;;;6378247;22;20077;-76
2023/05/23 01:52:20;;;;;;;1999.90;999.90;;;15.90;99.90;;;;;;6378072;22;20003;-78
2023/05/23 01:54:47;;;;;;;1999.90;999.90;;;15.90;99.90;;;;;;6377863;22;20014;-80
2023/05/23 01:57:13;;;;;;;1999.90;999.90;;;16.00;99.90;;;;;;6378191;22;20006;-76
2023/05/23 01:59:39;;;;;;;1999.90;999.90;;;16.00;99.90;;;;;;6378199;22;20003;-76
2023/05/23 02:02:05;;;;;;;1999.90;999.90;;;16.00;99.90;;;;;;6349962;22;20014;-76
2023/05/23 02:04:31;;;;;;;1999.90;999.90;;;16.00;99.90;;;;;;6377891;22;20003;-78
2023/05/23 02:06:56;;;;;;;1999.90;999.90;;;16.00;99.90;;;;;;6378224;22;20006;-80
2023/05/23 02:09:22;;;;;;;1999.90;999.90;;;16.10;99.90;;;;;;6378251;22;20021;-76
2023/05/23 02:11:47;;;;;;;1999.90;999.90;;;16.10;99.90;;;;;;6378054;22;20007;-76
2023/05/23 02:14:13;;;;;;;1999.90;999.90;;;16.10;99.90;;;;;;6378109;22;20014;-79
2023/05/23 02:16:38;;;;;;;1999.90;999.90;;;16.10;99.90;;;;;;6378156;22;20011;-75
2023/05/23 02:19:04;;;;;;;1999.90;999.90;;;16.10;99.90;;;;;;6350035;22;20034;-76
2023/05/23 02:21:30;;;;;;;1999.90;999.90;;;16.10;99.90;;;;;;6349637;22;20057;-79
2023/05/23 02:23:56;;;;;;;1999.90;999.90;;;16.10;99.90;;;;;;6377676;22;19999;-76
2023/05/23 02:26:21;;;;;;;1999.90;999.90;;;16.10;99.90;;;;;;6378084;22;20481;-76
2023/05/23 02:28:47;;;;;;;1999.90;999.90;;;16.10;99.90;;;;;;6349838;22;20430;-76
2023/05/23 02:31:13;;;;;;;1999.90;999.90;;;16.20;99.90;;;;;;6378248;22;20006;-76
2023/05/23 02:33:38;;;;;;;1999.90;999.90;;;16.20;99.90;;;;;;6378103;22;20014;-78
2023/05/23 02:36:04;;;;;;;1999.90;999.90;;;16.30;99.90;;;;;;6349758;22;20015;-76
2023/05/23 02:38:29;;;;;;;1999.90;999.90;;;16.30;99.90;;;;;;6378112;22;20473;-76
2023/05/23 02:40:56;;;;;;;1999.90;999.90;;;16.40;99.90;;;;;;6377848;22;20339;-76
2023/05/23 02:43:22;;;;;;;1999.90;999.90;;;16.40;99.90;;;;;;6378041;22;20026;-76
2023/05/23 02:45:48;;;;;;;1999.90;999.90;;;16.40;99.90;;;;;;6378185;22;20010;-76
2023/05/23 02:48:13;;;;;;;1999.90;999.90;;;16.40;99.90;;;;;;6378186;22;20014;-76
2023/05/23 02:50:39;;;;;;;1999.90;999.90;;;16.50;99.90;;;;;;6378172;22;20074;-76
2023/05/23 02:53:04;;;;;;;1999.90;999.90;;;16.50;99.90;;;;;;6350052;22;20049;-76
2023/05/23 02:55:30;;;;;;;1999.90;999.90;;;16.50;99.90;;;;;;6377780;22;20002;-76
2023/05/23 02:57:57;;;;;;;1999.90;999.90;;;16.50;99.90;;;;;;6349785;22;20006;-78
2023/05/23 03:00:23;;;;;;;1999.90;999.90;;;16.50;99.90;;;;;;6378033;22;20003;-75
2023/05/23 03:02:48;;;;;;;1999.90;999.90;;;16.50;99.90;;;;;;6377767;22;20011;-76
2023/05/23 03:05:14;;;;;;;1999.90;999.90;;;16.50;99.90;;;;;;6377973;22;20003;-80
2023/05/23 03:07:40;;;;;;;1999.90;999.90;;;16.60;99.90;;;;;;6349960;22;20412;-76
2023/05/23 03:10:06;;;;;;;1999.90;999.90;;;16.60;99.90;;;;;;6377952;22;20014;-76
2023/05/23 03:12:32;;;;;;;1999.90;999.90;;;16.60;99.90;;;;;;6377899;22;20011;-75
2023/05/23 03:14:57;;;;;;;1999.90;999.90;;;16.60;99.90;;;;;;6377797;22;20072;-76
2023/05/23 03:17:24;;;;;;;1999.90;999.90;;;16.60;99.90;;;;;;6377937;22;20039;-76
2023/05/23 03:19:50;;;;;;;1999.90;999.90;;;16.60;99.90;;;;;;6377883;22;19998;-77
2023/05/23 03:22:15;;;;;;;1999.90;999.90;;;16.60;99.90;;;;;;6377736;22;20423;-75
2023/05/23 03:24:41;;;;;;;1999.90;999.90;;;16.60;99.90;;;;;;6377519;22;20029;-76
2023/05/23 03:27:07;;;;;;;1999.90;999.90;;;16.50;99.90;;;;;;6377684;22;20011;-76
2023/05/23 03:29:33;;;;;;;1999.90;999.90;;;16.50;99.90;;;;;;6377719;22;20385;-76
2023/05/23 03:31:58;;;;;;;1999.90;999.90;;;16.70;99.90;;;;;;6349514;22;20006;-76
2023/05/23 03:34:25;;;;;;;1999.90;999.90;;;16.60;99.90;;;;;;6376591;22;20014;-80
2023/05/23 03:36:51;;;;;;;1999.90;999.90;;;16.60;99.90;;;;;;6349649;22;20011;-77
2023/05/23 03:39:17;;;;;;;1999.90;999.90;;;16.70;99.90;;;;;;6377581;22;20460;-77
2023/05/23 03:41:43;;;;;;;1999.90;999.90;;;16.60;99.90;;;;;;6377442;22;20011;-76
2023/05/23 03:44:08;;;;;;;1999.90;999.90;;;16.70;99.90;;;;;;6377824;22;20010;-76
2023/05/23 03:46:34;;;;;;;1999.90;999.90;;;16.60;99.90;;;;;;6349844;22;20013;-76
2023/05/23 03:48:59;;;;;;;1999.90;999.90;;;16.60;99.90;;;;;;6349649;22;20002;-78
2023/05/23 03:51:26;;;;;;;1999.90;999.90;;;16.50;99.90;;;;;;6376005;22;20011;-76
2023/05/23 03:53:52;;;;;;;1999.90;999.90;;;16.50;99.90;;;;;;6349463;22;20357;-76
2023/05/23 03:56:18;;;;;;;1999.90;999.90;;;16.50;99.90;;;;;;6349499;22;20021;-80
2023/05/23 03:58:43;;;;;;;1999.90;999.90;;;16.50;99.90;;;;;;6349544;22;20013;-76
2023/05/23 04:01:09;;;;;;;1999.90;999.90;;;16.60;99.90;;;;;;6377551;22;20090;-76
2023/05/23 04:03:34;;;;;;;1999.90;999.90;;;16.60;99.90;;;;;;6349765;22;20011;-79
2023/05/23 04:06:00;;;;;;;1999.90;999.90;;;16.60;99.90;;;;;;6376814;22;20033;-76
2023/05/23 04:08:28;;;;;;;1999.90;999.90;;;16.60;99.90;;;;;;6377640;22;20446;-76
2023/05/23 04:10:53;;;;;;;1999.90;999.90;;;16.60;99.90;;;;;;6377639;22;20014;-76
2023/05/23 04:13:19;;;;;;;1999.90;999.90;;;16.60;99.90;;;;;;6377742;22;20343;-79
2023/05/23 04:15:46;;;;;;;1999.90;999.90;;;16.60;99.90;;;;;;6377305;22;20060;-81
2023/05/23 04:18:13;;;;;;;1999.90;999.90;;;16.80;99.90;;;;;;6377905;22;20056;-76
2023/05/23 04:20:40;;;;;;;1999.90;999.90;;;16.70;99.90;;;;;;6376043;22;20772;-75
2023/05/23 04:23:05;;;;;;;1999.90;999.90;;;16.80;99.90;;;;;;6377677;22;20010;-76
2023/05/23 04:25:31;;;;;;;1999.90;999.90;;;16.80;99.90;;;;;;6377269;22;20338;-76
2023/05/23 04:27:56;;;;;;;1999.90;999.90;;;16.80;99.90;;;;;;6377485;22;20003;-76
2023/05/23 04:30:22;;;;;;;1999.90;999.90;;;16.90;99.90;;;;;;6377724;22;20006;-76
2023/05/23 04:32:47;;;;;;;1999.90;999.90;;;16.90;99.90;;;;;;6377422;22;20078;-76
2023/05/23 04:35:13;;;;;;;1999.90;999.90;;;16.90;99.90;;;;;;6377193;22;20430;-76
2023/05/23 04:37:39;;;;;;;1999.90;999.90;;;17.10;99.90;;;;;;6377383;22;20438;-79
2023/05/23 04:40:06;;;;;;;1999.90;999.90;;;17.10;99.90;;;;;;6377501;22;20026;-76
2023/05/23 04:42:32;;;;;;;1999.90;999.90;;;17.20;99.90;;;;;;6377221;22;20461;-76
2023/05/23 04:44:58;;;;;;;1999.90;999.90;;;17.30;99.90;;;;;;6377229;22;20007;-76
2023/05/23 04:47:27;;;;;;;1999.90;999.90;;;17.30;99.90;;;;;;6349255;22;20018;-76
2023/05/23 04:49:54;;;;;;;1999.90;999.90;;;17.30;99.90;;;;;;6377463;22;20070;-76
2023/05/23 04:52:20;;;;;;;1999.90;999.90;;;17.30;99.90;;;;;;6377330;22;20070;-76
2023/05/23 04:54:47;;;;;;;1999.90;999.90;;;17.40;99.90;;;;;;6377193;22;20478;-76
2023/05/23 04:57:13;;;;;;;1999.90;999.90;;;17.50;99.90;;;;;;6377314;22;20003;-76
2023/05/23 04:59:39;;;;;;;1999.90;999.90;;;17.50;99.90;;;;;;6377569;22;20434;-76
2023/05/23 05:02:05;;;;;;;1999.90;999.90;;;17.60;99.90;;;;;;6377597;22;20098;-76
2023/05/23 05:04:30;;;;;;;1999.90;999.90;;;17.70;99.90;;;;;;6377098;22;20060;-76
2023/05/23 05:06:56;;;;;;;1999.90;999.90;;;17.60;99.90;;;;;;6349460;22;20082;-76
2023/05/23 05:09:22;;;;;;;1999.90;999.90;;;17.60;99.90;;;;;;6375566;22;20077;-76
2023/05/23 05:11:47;;;;;;;1999.90;999.90;;;17.70;99.90;;;;;;6348688;22;20006;-76
2023/05/23 05:14:13;;;;;;;1999.90;999.90;;;17.70;99.90;;;;;;6377276;22;20007;-78
2023/05/23 05:16:39;;;;;;;1999.90;999.90;;;17.80;99.90;;;;;;6377444;22;20414;-75
2023/05/23 05:19:05;;;;;;;1999.90;999.90;;;17.80;99.90;;;;;;6378487;22;20005;-76
2023/05/23 05:21:30;;;;;;;1999.90;999.90;;;17.90;99.90;;;;;;6378656;22;20010;-76
2023/05/23 05:23:56;;;;;;;1999.90;999.90;;;18.00;99.90;;;;;;6350679;22;20346;-80
2023/05/23 05:26:22;;;;;;;1999.90;999.90;;;18.20;99.90;;;;;;6350452;22;20011;-78
2023/05/23 05:28:48;;;;;;;1999.90;999.90;;;18.30;99.90;;;;;;6378733;22;20037;-75
2023/05/23 05:31:14;;;;;;;1999.90;999.90;;;18.30;99.90;;;;;;6350211;22;20511;-76
2023/05/23 05:33:40;;;;;;;1999.90;999.90;;;18.40;99.90;;;;;;6350340;22;20409;-76
2023/05/23 05:36:06;;;;;;;1999.90;999.90;;;18.50;99.90;;;;;;6350349;22;20014;-75
2023/05/23 05:38:32;;;;;;;1999.90;999.90;;;18.60;99.90;;;;;;6378810;22;20025;-76
2023/05/23 05:40:58;;;;;;;1999.90;999.90;;;18.80;99.90;;;;;;6350449;22;20541;-76
2023/05/23 05:43:24;;;;;;;1999.90;999.90;;;18.90;99.90;;;;;;6378652;22;20015;-75
2023/05/23 05:45:50;;;;;;;1999.90;999.90;;;19.10;99.90;;;;;;6348981;22;20027;-75
2023/05/23 05:48:16;;;;;;;1999.90;999.90;;;19.30;99.90;;;;;;6350325;22;20076;-76
2023/05/23 05:50:44;;;;;;;1999.90;999.90;;;19.50;99.90;;;;;;6377850;22;20381;-76
2023/05/23 05:53:10;;;;;;;1999.90;999.90;;;19.60;99.90;;;;;;6349958;22;20017;-75
2023/05/23 05:55:35;;;;;;;1999.90;999.90;;;19.50;99.90;;;;;;6350117;22;20089;-75
2023/05/23 05:58:01;;;;;;;1999.90;999.90;;;19.40;99.90;;;;;;6378483;22;20078;-75
2023/05/23 06:00:26;;;;;;;1999.90;999.90;;;19.10;99.90;;;;;;6350399;22;20094;-75
2023/05/23 06:02:56;;;;;;;1999.90;999.90;;;19.00;99.90;;;;;;6378189;22;20011;-75
2023/05/23 06:05:22;;;;;;;1999.90;999.90;;;19.00;99.90;;;;;;6378274;22;20055;-75
2023/05/23 06:07:51;;;;;;;1999.90;999.90;;;19.00;99.90;;;;;;6378500;22;20003;-75
2023/05/23 06:10:17;;;;;;;1999.90;999.90;;;18.90;99.90;;;;;;6378487;22;20033;-75
2023/05/23 06:12:42;;;;;;;1999.90;999.90;;;19.00;99.90;;;;;;6378129;22;20010;-75
2023/05/23 06:15:08;;;;;;;1999.90;999.90;;;19.10;99.90;;;;;;6378585;22;20457;-76
2023/05/23 06:17:34;;;;;;;1999.90;999.90;;;18.90;99.90;;;;;;6376941;22;20068;-75
2023/05/23 06:20:00;;;;;;;1999.90;999.90;;;18.70;99.90;;;;;;6379135;22;20381;-77
2023/05/23 06:22:25;;;;;;;1999.90;999.90;;;18.60;99.90;;;;;;6378023;22;20575;-76
2023/05/23 06:24:51;;;;;;;1999.90;999.90;;;18.60;99.90;;;;;;6350440;22;20002;-74
2023/05/23 06:27:16;;;;;;;1999.90;999.90;;;18.70;99.90;;;;;;6378593;22;20430;-74
2023/05/23 06:29:42;;;;;;;1999.90;999.90;;;18.80;99.90;;;;;;6349956;22;20003;-74
2023/05/23 06:32:07;;;;;;;1999.90;999.90;;;18.90;99.90;;;;;;6377698;22;20018;-76
2023/05/23 06:34:33;;;;;;;1999.90;999.90;;;18.90;99.90;;;;;;6377864;22;20007;-74
2023/05/23 06:36:58;;;;;;;1999.90;999.90;;;18.90;99.90;;;;;;6378072;22;20086;-75
2023/05/23 06:39:24;;;;;;;1999.90;999.90;;;19.00;99.90;;;;;;6378088;22;20070;-74
2023/05/23 06:41:50;;;;;;;1999.90;999.90;;;19.00;99.90;;;;;;6377470;22;20439;-74
2023/05/23 06:44:15;;;;;;;1999.90;999.90;;;18.90;99.90;;;;;;6377478;22;20002;-77
2023/05/23 06:46:47;;;;;;;1999.90;999.90;;;19.00;99.90;;;;;;6377600;22;20009;-74
2023/05/23 06:49:13;;;;;;;1999.90;999.90;;;18.90;99.90;;;;;;6378021;22;20003;-75
2023/05/23 06:51:39;;;;;;;1999.90;999.90;;;19.10;99.90;;;;;;6377539;22;20082;-74
2023/05/23 06:54:05;;;;;;;1999.90;999.90;;;19.10;99.90;;;;;;6377693;22;20027;-75
2023/05/23 06:56:31;;;;;;;1999.90;999.90;;;19.10;99.90;;;;;;6377934;22;20448;-75
2023/05/23 06:58:56;;;;;;;1999.90;999.90;;;19.10;99.90;;;;;;6377707;22;20007;-77
2023/05/23 07:01:22;;;;;;;1999.90;999.90;;;19.10;99.90;;;;;;6377344;22;20068;-74
2023/05/23 07:03:50;;;;;;;1999.90;999.90;;;19.20;99.90;;;;;;6349856;22;20316;-74
2023/05/23 07:06:16;;;;;;;1999.90;999.90;;;19.40;99.90;;;;;;6377844;22;20434;-76
2023/05/23 07:08:42;;;;;;;1999.90;999.90;;;19.60;99.90;;;;;;6377871;22;20367;-75
2023/05/23 07:11:07;;;;;;;1999.90;999.90;;;19.50;99.90;;;;;;6377497;22;20014;-75
2023/05/23 07:13:33;;;;;;;1999.90;999.90;;;19.30;99.90;;;;;;6377893;22;20457;-77
2023/05/23 07:15:59;;;;;;;1999.90;999.90;;;19.10;99.90;;;;;;6374525;22;20379;-74
2023/05/23 07:18:24;;;;;;;1999.90;999.90;;;19.00;99.90;;;;;;6374311;22;20006;-75
2023/05/23 07:20:50;;;;;;;1999.90;999.90;;;19.00;99.90;;;;;;6374360;22;20011;-75
2023/05/23 07:23:16;;;;;;;1999.90;999.90;;;19.00;99.90;;;;;;6377129;22;20010;-75
2023/05/23 07:25:42;;;;;;;1999.90;999.90;;;19.10;99.90;;;;;;6349578;22;20006;-74
2023/05/23 07:28:08;;;;;;;1999.90;999.90;;;19.30;99.90;;;;;;6349710;22;20003;-74
2023/05/23 07:30:34;;;;;;;1999.90;999.90;;;19.60;99.90;;;;;;6377461;22;20496;-74
2023/05/23 07:33:00;;;;;;;1999.90;999.90;;;19.60;99.90;;;;;;6377451;22;20003;-75
2023/05/23 07:35:26;;;;;;;1999.90;999.90;;;19.60;99.90;;;;;;6377115;22;20003;-76
2023/05/23 07:37:52;;;;;;;1999.90;999.90;;;19.50;99.90;;;;;;6377551;22;20011;-78
2023/05/23 07:40:18;;;;;;;1999.90;999.90;;;19.30;99.90;;;;;;6377562;22;20086;-77
2023/05/23 07:42:43;;;;;;;1999.90;999.90;;;19.30;99.90;;;;;;6376672;22;20522;-74
2023/05/23 07:45:09;;;;;;;1999.90;999.90;;;19.30;99.90;;;;;;6349174;22;20430;-75
2023/05/23 07:47:35;;;;;;;1999.90;999.90;;;19.00;99.90;;;;;;6378057;22;20010;-74
2023/05/23 07:50:01;;;;;;;1999.90;999.90;;;18.80;99.90;;;;;;6377678;22;20442;-76
2023/05/23 07:52:29;;;;;;;1999.90;999.90;;;18.50;99.90;;;;;;6377229;22;20003;-80
2023/05/23 07:54:55;;;;;;;1999.90;999.90;;;18.50;99.90;;;;;;6377464;22;20003;-76
2023/05/23 07:57:20;;;;;;;1999.90;999.90;;;18.50;99.90;;;;;;6377572;22;20016;-75
2023/05/23 07:59:46;;;;;;;1999.90;999.90;;;18.80;99.90;;;;;;6377569;22;20484;-77
2023/05/23 08:02:11;;;;;;;1999.90;999.90;;;19.20;99.90;;;;;;6377043;22;20011;-78
2023/05/23 08:04:39;;;;;;;1999.90;999.90;;;19.60;99.90;;;;;;6377042;22;20022;-74
2023/05/23 08:07:04;;;;;;;1999.90;999.90;;;20.00;99.90;;;;;;6377109;22;20007;-76
2023/05/23 08:09:30;;;;;;;1999.90;999.90;;;20.40;99.90;;;;;;6376533;22;20007;-80
2023/05/23 08:11:55;;;;;;;1999.90;999.90;;;20.80;99.90;;;;;;6349281;22;20057;-75
2023/05/23 08:14:21;;;;;;;1999.90;999.90;;;20.60;99.90;;;;;;6376016;22;20024;-74
2023/05/23 08:16:47;;;;;;;1999.90;999.90;;;20.20;99.90;;;;;;6377294;22;20007;-74
2023/05/23 08:19:13;;;;;;;1999.90;999.90;;;19.70;99.90;;;;;;6376939;22;20007;-74
2023/05/23 08:21:39;;;;;;;1999.90;999.90;;;19.30;99.90;;;;;;6376408;22;20038;-75
2023/05/23 08:24:04;;;;;;;1999.90;999.90;;;19.10;99.90;;;;;;6376579;22;20003;-74
2023/05/23 08:26:33;;;;;;;1999.90;999.90;;;19.10;99.90;;;;;;6376930;22;20007;-75
2023/05/23 08:29:01;;;;;;;1999.90;999.90;;;19.10;99.90;;;;;;6377027;22;20383;-75
2023/05/23 08:31:29;;;;;;;1999.90;999.90;;;19.40;99.90;;;;;;6376380;22;20086;-74
2023/05/23 08:33:55;;;;;;;1999.90;999.90;;;19.40;99.90;;;;;;6376454;22;20026;-74
2023/05/23 08:36:21;;;;;;;1999.90;999.90;;;19.50;99.90;;;;;;6376745;22;20030;-74
2023/05/23 08:38:46;;;;;;;1999.90;999.90;;;19.70;99.90;;;;;;6376836;22;20144;-74
2023/05/23 08:41:17;;;;;;;1999.90;999.90;;;19.80;99.90;;;;;;6375813;22;20010;-74
2023/05/23 08:43:43;;;;;;;1999.90;999.90;;;19.90;99.90;;;;;;6377127;22;20006;-74
2023/05/23 08:46:08;;;;;;;1999.90;999.90;;;20.20;99.90;;;;;;6375376;22;20073;-74
2023/05/23 08:48:37;;;;;;;1999.90;999.90;;;20.40;99.90;;;;;;6377165;22;20019;-74
2023/05/23 08:51:03;;;;;;;1999.90;999.90;;;20.40;99.90;;;;;;6376542;22;20064;-75
2023/05/23 08:53:31;;;;;;;1999.90;999.90;;;20.50;99.90;;;;;;6349026;22;20007;-78
2023/05/23 08:56:01;;;;;;;1999.90;999.90;;;19.90;99.90;;;;;;6377033;22;20498;-74
2023/05/23 08:58:30;;;;;;;1999.90;999.90;;;19.60;99.90;;;;;;6349157;22;20015;-74
2023/05/23 09:00:58;;;;;;;1999.90;999.90;;;19.50;99.90;;;;;;6376769;22;19999;-74
2023/05/23 09:03:26;;;;;;;1999.90;999.90;;;19.40;99.90;;;;;;6377625;22;20019;-74
2023/05/23 09:05:53;;;;;;;1999.90;999.90;;;19.90;99.90;;;;;;6377010;22;20438;-74
2023/05/23 09:08:19;;;;;;;1999.90;999.90;;;20.80;99.90;;;;;;6376578;22;20512;-74
2023/05/23 09:10:51;;;;;;;1999.90;999.90;;;21.40;99.90;;;;;;6377017;22;20065;-74
2023/05/23 09:13:21;;;;;;;1999.90;999.90;;;21.90;99.90;;;;;;6348864;22;20011;-79
2023/05/23 09:16:08;;;;;;;1999.90;999.90;;;21.90;99.90;;;;;;6377732;22;20074;-78
2023/05/23 09:18:41;;;;;;;1999.90;999.90;;;21.60;99.90;;;;;;6377791;22;20018;-76
2023/05/23 09:21:11;;;;;;;1999.90;999.90;;;22.10;99.90;;;;;;6376871;22;20027;-75
2023/05/23 09:23:39;;;;;;;1999.90;999.90;;;22.20;99.90;;;;;;6377284;22;20029;-77
2023/05/23 09:26:08;;;;;;;1999.90;999.90;;;22.40;99.90;;;;;;6375973;22;32712;-76
2023/05/23 09:28:38;;;;;;;1999.90;999.90;;;23.10;99.90;;;;;;6377216;22;20460;-79
2023/05/23 09:31:05;;;;;;;1999.90;999.90;;;23.40;99.00;;;;;;6377841;22;20097;-77
2023/05/23 09:33:48;;;;;;;1999.90;999.90;;;23.20;98.40;;;;;;6377592;22;20346;-78
2023/05/23 09:36:14;;;;;;;1999.90;999.90;;;23.10;97.60;;;;;;6349220;22;20041;-78
2023/05/23 09:38:42;;;;;;;1999.90;999.90;;;22.50;97.70;;;;;;6348782;22;20038;-78
2023/05/23 09:41:11;;;;;;;1999.90;999.90;;;22.20;98.90;;;;;;6376578;22;20694;-79
2023/05/23 09:43:37;;;;;;;1999.90;999.90;;;21.90;98.60;;;;;;6377031;22;20006;-77
2023/05/23 09:46:08;;;;;;;1999.90;999.90;;;21.60;99.40;;;;;;6348710;22;20014;-77
2023/05/23 09:48:34;;;;;;;1999.90;999.90;;;21.40;99.60;;;;;;6377287;22;20006;-78
2023/05/23 09:51:03;;;;;;;1999.90;999.90;;;21.10;99.90;;;;;;6376799;22;20025;-78
2023/05/23 09:53:29;;;;;;;1999.90;999.90;;;21.20;99.90;;;;;;6377567;22;19999;-79
2023/05/23 09:55:57;;;;;;;1999.90;999.90;;;21.40;99.90;;;;;;6350286;22;20088;-79
2023/05/23 09:58:24;;;;;;;1999.90;999.90;;;21.50;99.70;;;;;;6379010;22;20018;-83
2023/05/23 10:00:51;;;;;;;1999.90;999.90;;;21.90;99.90;;;;;;6378734;22;20708;-82
2023/05/23 10:03:22;;;;;;;1999.90;999.90;;;21.60;99.60;;;;;;6379362;22;20052;-83
2023/05/23 10:05:55;;;;;;;1999.90;999.90;;;21.50;99.50;;;;;;6380421;22;20347;-80
2023/05/23 10:08:31;;;;;;;1999.90;999.90;;;21.60;98.60;;;;;;6380200;22;20073;-77
2023/05/23 10:10:56;;;;;;;1999.90;999.90;;;21.80;98.70;;;;;;6380179;22;19999;-80
2023/05/23 10:13:25;;;;;;;1999.90;999.90;;;22.20;98.40;;;;;;6381470;22;20014;-78
2023/05/23 10:15:58;;;;;;;1999.90;999.90;;;22.20;97.30;;;;;;6379783;22;19998;-82
2023/05/23 10:18:28;;;;;;;1999.90;999.90;;;23.00;97.00;;;;;;6347805;22;20021;-78
2023/05/23 10:20:59;;;;;;;1999.90;999.90;;;23.60;95.50;;;;;;6378780;22;20071;-77
2023/05/23 10:23:26;;;;;;;1999.90;999.90;;;23.70;94.30;;;;;;6351013;22;20511;-76
2023/05/23 10:25:51;;;;;;;1999.90;999.90;;;23.20;95.30;;;;;;6378657;22;20009;-79
2023/05/23 10:28:18;;;;;;;1999.90;999.90;;;23.10;95.10;;;;;;6378856;22;20105;-77
2023/05/23 10:30:44;;;;;;;1999.90;999.90;;;23.40;94.20;;;;;;6378653;22;20002;-78
2023/05/23 10:33:13;;;;;;;1999.90;999.90;;;23.20;94.50;;;;;;6378177;22;20088;-76
2023/05/23 10:35:49;;;;;;;1999.90;999.90;;;23.50;93.80;;;;;;6378039;22;20526;-77
2023/05/23 10:38:39;;;;;;;1999.90;999.90;;;23.30;94.90;;;;;;6380669;22;20084;-77
2023/05/23 10:41:20;;;;;;;1999.90;999.90;;;22.70;94.40;;;;;;6351920;22;20386;-77
2023/05/23 10:44:08;;;;;;;1999.90;999.90;;;22.70;94.20;;;;;;6379517;22;20849;-77
2023/05/23 10:47:04;;;;;;;1999.90;999.90;;;22.20;94.50;;;;;;6379084;22;20003;-79
2023/05/23 10:49:42;;;;;;;1999.90;999.90;;;21.70;96.00;;;;;;6352540;22;20042;-79
2023/05/23 10:52:10;;;;;;;1999.90;999.90;;;21.90;98.00;;;;;;6351023;22;20014;-78
2023/05/23 10:54:45;;;;;;;1999.90;999.90;;;22.20;95.70;;;;;;6350314;22;20010;-77
2023/05/23 10:57:16;;;;;;;1999.90;999.90;;;22.20;95.00;;;;;;6379190;22;20025;-77
2023/05/23 10:59:41;;;;;;;1999.90;999.90;;;22.10;95.00;;;;;;6379473;22;20472;-82
2023/05/23 11:02:28;;;;;;;1999.90;999.90;;;22.20;96.90;;;;;;6377829;22;20011;-80
2023/05/23 11:05:22;;;;;;;1999.90;999.90;;;22.00;98.00;;;;;;6377689;22;20081;-79
2023/05/23 11:08:26;;;;;;;1999.90;999.90;;;22.00;95.70;;;;;;6378004;22;20009;-78
2023/05/23 11:10:51;;;;;;;1999.90;999.90;;;22.10;97.50;;;;;;6250132;22;20020;-78
2023/05/23 11:13:20;;;;;;;1999.90;999.90;;;22.20;95.80;;;;;;6249718;22;20027;-78
2023/05/23 11:15:46;;;;;;;1999.90;999.90;;;22.10;96.10;;;;;;6300471;22;20006;-77
2023/05/23 11:18:23;;;;;;;1999.90;999.90;;;21.90;95.40;;;;;;6378399;22;20011;-77
2023/05/23 11:20:51;;;;;;;1999.90;999.90;;;21.90;96.20;;;;;;6378080;22;20418;-79
2023/05/23 11:23:17;;;;;;;1999.90;999.90;;;21.80;97.50;;;;;;6350134;22;20011;-78
2023/05/23 11:25:52;;;;;;;1999.90;999.90;;;21.60;97.80;;;;;;6378590;22;20003;-78
2023/05/23 11:28:18;;;;;;;1999.90;999.90;;;21.70;97.40;;;;;;6379029;22;20011;-78
2023/05/23 11:30:47;;;;;;;1999.90;999.90;;;22.20;96.80;;;;;;6351141;22;20011;-76
2023/05/23 11:33:15;;;;;;;1999.90;999.90;;;22.50;95.80;;;;;;6358041;22;20006;-80
2023/05/23 11:35:42;;;;;;;1999.90;999.90;;;22.70;97.10;;;;;;6355226;22;20002;-83
2023/05/23 11:38:08;;;;;;;1999.90;999.90;;;22.70;96.20;;;;;;6350972;22;20014;-80
2023/05/23 11:40:41;;;;;;;1999.90;999.90;;;22.90;94.10;;;;;;6379115;22;20051;-78
2023/05/23 11:43:12;;;;;;;1999.90;999.90;;;22.90;94.50;;;;;;6350728;22;20011;-76
2023/05/23 11:45:38;;;;;;;1999.90;999.90;;;23.20;96.30;;;;;;6350664;22;20010;-78
2023/05/23 11:48:15;;;;;;;1999.90;999.90;;;23.00;96.60;;;;;;6378911;22;20084;-81
2023/05/23 11:50:44;;;;;;;1999.90;999.90;;;22.80;95.90;;;;;;6379467;22;20003;-79
2023/05/23 11:53:10;;;;;;;1999.90;999.90;;;22.90;94.80;;;;;;6380001;22;20442;-77
2023/05/23 11:55:39;;;;;;;1999.90;999.90;;;22.80;94.30;;;;;;6381355;22;19999;-79
2023/05/23 11:58:05;;;;;;;1999.90;999.90;;;23.00;95.10;;;;;;6380890;22;20014;-79
2023/05/23 12:00:31;;;;;;;1999.90;999.90;;;23.20;93.90;;;;;;6351462;22;20007;-78